createdAt,value
2019-03-06T00:01:23.401Z,4.51
2019-03-06T00:04:30.530Z,4.22
2019-03-06T00:07:46.844Z,4.29
2019-03-06T00:11:03.900Z,4.18
2019-03-06T00:14:11.407Z,4.23
2019-03-06T00:17:18.707Z,4.08
2019-03-06T00:20:26.065Z,4.25
2019-03-06T00:23:33.262Z,4.33
2019-03-06T00:26:40.488Z,4.34
2019-03-06T00:29:47.603Z,4.28
2019-03-06T00:32:55.010Z,4.11
2019-03-06T00:36:03.130Z,4.27
2019-03-06T00:39:20.977Z,4.27
2019-03-06T00:42:28.379Z,4.30
2019-03-06T00:45:51.657Z,4.23
2019-03-06T00:48:58.988Z,4.16
2019-03-06T00:52:15.552Z,4.07
2019-03-06T00:55:22.687Z,4.10
2019-03-06T00:58:30.170Z,4.18
2019-03-06T01:01:46.712Z,4.28
2019-03-06T01:04:53.999Z,4.20
2019-03-06T01:08:01.385Z,4.03
2019-03-06T01:11:17.977Z,4.04
2019-03-06T01:14:34.757Z,4.05
2019-03-06T01:17:41.960Z,3.91
2019-03-06T01:20:49.170Z,4.07
2019-03-06T01:24:06.005Z,4.04
2019-03-06T01:27:13.135Z,3.97
2019-03-06T01:30:20.347Z,4.04
2019-03-06T01:33:41.596Z,4.07
2019-03-06T01:37:07.846Z,4.06
2019-03-06T01:40:33.104Z,4.04
2019-03-06T01:43:50.279Z,4.14
2019-03-06T01:47:11.079Z,4.19
2019-03-06T01:50:18.286Z,4.04
2019-03-06T01:53:35.153Z,4.07
2019-03-06T01:56:51.964Z,4.03
2019-03-06T02:00:10.431Z,3.99
2019-03-06T02:03:27.041Z,3.95
2019-03-06T02:06:34.943Z,3.97
2019-03-06T02:09:42.159Z,3.91
2019-03-06T02:12:49.351Z,3.92
2019-03-06T02:15:56.796Z,3.95
2019-03-06T02:19:03.969Z,3.87
2019-03-06T02:22:11.170Z,4.02
2019-03-06T02:25:18.489Z,4.02
2019-03-06T02:28:25.892Z,4.01
2019-03-06T02:31:33.100Z,4.00
2019-03-06T02:34:40.303Z,3.94
2019-03-06T02:37:47.688Z,3.95
2019-03-06T02:40:54.813Z,3.81
2019-03-06T02:44:02.055Z,3.82
2019-03-06T02:47:09.350Z,3.78
2019-03-06T02:50:16.697Z,3.79
2019-03-06T02:53:23.823Z,3.86
2019-03-06T02:56:40.631Z,3.91
2019-03-06T02:59:59.004Z,3.81
2019-03-06T03:03:28.857Z,3.74
2019-03-06T03:06:56.608Z,3.91
2019-03-06T03:10:14.770Z,3.77
2019-03-06T03:13:20.865Z,3.69
2019-03-06T03:16:28.064Z,3.88
2019-03-06T03:19:35.392Z,3.95
2019-03-06T03:22:42.700Z,3.91
2019-03-06T03:25:49.911Z,3.93
2019-03-06T03:28:57.117Z,3.98
2019-03-06T03:32:04.611Z,3.89
2019-03-06T03:35:12.256Z,3.73
2019-03-06T03:38:19.558Z,3.89
2019-03-06T03:41:36.323Z,4.05
2019-03-06T03:44:43.636Z,3.91
2019-03-06T03:48:00.217Z,4.05
2019-03-06T03:51:07.523Z,3.96
2019-03-06T03:54:15.052Z,3.86
2019-03-06T03:57:31.795Z,3.94
2019-03-06T04:00:48.318Z,3.99
2019-03-06T04:04:04.999Z,4.03
2019-03-06T04:07:23.140Z,3.92
2019-03-06T04:10:30.569Z,3.85
2019-03-06T04:13:38.078Z,3.95
2019-03-06T04:16:54.543Z,4.01
2019-03-06T04:20:11.825Z,3.84
2019-03-06T04:23:19.057Z,3.83
2019-03-06T04:26:26.279Z,3.82
2019-03-06T04:29:33.412Z,3.87
2019-03-06T04:32:49.651Z,3.91
2019-03-06T04:35:56.943Z,3.81
2019-03-06T04:39:04.987Z,3.81
2019-03-06T04:42:12.154Z,3.70
2019-03-06T04:45:19.350Z,3.67
2019-03-06T04:48:26.533Z,3.76
2019-03-06T04:51:33.660Z,3.95
2019-03-06T04:54:40.969Z,3.67
2019-03-06T04:57:48.218Z,3.73
2019-03-06T05:00:55.257Z,3.85
2019-03-06T05:04:02.603Z,3.83
2019-03-06T05:07:09.746Z,3.77
2019-03-06T05:10:17.251Z,3.71
2019-03-06T05:13:25.398Z,3.78
2019-03-06T05:16:56.167Z,3.75
2019-03-06T05:20:03.431Z,3.77
2019-03-06T05:23:20.769Z,3.74
2019-03-06T05:26:37.166Z,3.81
2019-03-06T05:29:44.480Z,3.73
2019-03-06T05:32:51.666Z,3.71
2019-03-06T05:36:45.564Z,3.71
2019-03-06T05:40:01.942Z,3.82
2019-03-06T05:43:09.158Z,3.77
2019-03-06T05:46:16.340Z,3.68
2019-03-06T05:49:23.504Z,3.72
2019-03-06T05:52:30.771Z,3.87
2019-03-06T05:55:38.035Z,3.87
2019-03-06T05:58:45.115Z,3.81
2019-03-06T06:01:52.417Z,3.85
2019-03-06T06:05:11.145Z,3.90
2019-03-06T06:08:28.760Z,3.87
2019-03-06T06:11:35.899Z,3.98
2019-03-06T06:14:43.129Z,3.97
2019-03-06T06:17:50.269Z,3.91
2019-03-06T06:21:15.415Z,3.85
2019-03-06T06:24:25.040Z,3.81
2019-03-06T06:27:32.160Z,3.97
2019-03-06T06:30:39.382Z,3.90
2019-03-06T06:33:46.684Z,4.02
2019-03-06T06:36:53.889Z,4.07
2019-03-06T06:40:01.120Z,4.02
2019-03-06T06:43:08.415Z,3.95
2019-03-06T06:46:15.723Z,4.06
2019-03-06T06:49:23.030Z,4.04
2019-03-06T06:53:07.314Z,4.09
2019-03-06T06:56:51.851Z,4.08
2019-03-06T07:00:27.691Z,4.24
2019-03-06T07:04:57.778Z,4.30
2019-03-06T07:08:40.086Z,4.24
2019-03-06T07:11:53.515Z,4.27
2019-03-06T07:15:23.532Z,4.37
2019-03-06T07:18:58.791Z,4.31
2019-03-06T07:22:36.533Z,4.51
2019-03-06T07:25:53.060Z,4.41
2019-03-06T07:29:24.787Z,4.31
2019-03-06T07:32:47.247Z,4.42
2019-03-06T07:36:39.196Z,4.59
2019-03-06T07:39:56.503Z,4.50
2019-03-06T07:43:21.585Z,4.58
2019-03-06T07:47:06.662Z,4.77
2019-03-06T07:50:41.619Z,4.69
2019-03-06T07:54:08.163Z,4.69
2019-03-06T07:57:32.719Z,4.64
2019-03-06T08:00:40.024Z,4.69
2019-03-06T08:03:51.714Z,4.83
2019-03-06T08:07:13.673Z,4.83
2019-03-06T08:10:33.548Z,4.86
2019-03-06T08:14:04.621Z,4.89
2019-03-06T08:17:52.486Z,4.89
2019-03-06T08:21:10.731Z,4.99
2019-03-06T08:24:43.044Z,4.91
2019-03-06T08:28:10.450Z,5.08
2019-03-06T08:31:36.767Z,5.03
2019-03-06T08:34:44.148Z,4.92
2019-03-06T08:37:52.276Z,5.21
2019-03-06T08:41:04.432Z,5.01
2019-03-06T08:44:08.299Z,5.06
2019-03-06T08:47:40.791Z,5.12
2019-03-06T08:51:13.117Z,5.17
2019-03-06T08:54:56.542Z,5.23
2019-03-06T08:58:32.159Z,5.18
2019-03-06T09:01:59.813Z,5.35
2019-03-06T09:05:06.193Z,5.32
2019-03-06T09:08:45.224Z,5.43
2019-03-06T09:12:14.786Z,5.37
2019-03-06T09:15:39.979Z,5.41
2019-03-06T09:19:07.013Z,5.33
2019-03-06T09:22:24.002Z,5.52
2019-03-06T09:25:45.691Z,5.55
2019-03-06T09:29:24.360Z,5.43
2019-03-06T09:33:22.972Z,5.62
2019-03-06T09:36:38.339Z,5.60
2019-03-06T09:39:53.365Z,5.62
2019-03-06T09:43:22.367Z,5.82
2019-03-06T09:47:23.861Z,6.05
2019-03-06T09:50:40.960Z,5.89
2019-03-06T09:53:55.919Z,5.95
2019-03-06T09:57:19.550Z,5.89
2019-03-06T10:00:43.988Z,6.03
2019-03-06T10:04:09.102Z,5.94
2019-03-06T10:07:26.133Z,6.04
2019-03-06T10:10:46.130Z,6.10
2019-03-06T10:14:00.479Z,6.17
2019-03-06T10:17:43.905Z,6.25
2019-03-06T10:20:51.129Z,6.29
2019-03-06T10:23:58.452Z,6.27
2019-03-06T10:27:05.666Z,6.42
2019-03-06T10:30:14.333Z,6.58
2019-03-06T10:33:21.864Z,6.62
2019-03-06T10:36:29.016Z,6.64
2019-03-06T10:39:36.296Z,6.75
2019-03-06T10:42:43.533Z,6.75
2019-03-06T10:45:50.733Z,6.79
2019-03-06T10:48:58.126Z,6.89
2019-03-06T10:52:05.744Z,6.98
2019-03-06T10:55:22.431Z,7.01
2019-03-06T10:58:39.129Z,7.09
2019-03-06T11:01:46.408Z,7.03
2019-03-06T11:04:57.889Z,7.12
2019-03-06T11:08:06.681Z,7.10
2019-03-06T11:11:14.086Z,7.14
2019-03-06T11:14:21.486Z,7.39
2019-03-06T11:17:28.682Z,7.28
2019-03-06T11:20:45.612Z,7.59
2019-03-06T11:24:02.439Z,7.46
2019-03-06T11:27:19.089Z,7.58
2019-03-06T11:30:35.938Z,7.76
2019-03-06T11:33:43.234Z,7.77
2019-03-06T11:36:50.405Z,7.71
2019-03-06T11:40:08.536Z,7.77
2019-03-06T11:43:15.739Z,7.72
2019-03-06T11:46:23.042Z,7.81
2019-03-06T11:49:30.233Z,7.94
2019-03-06T11:52:37.423Z,7.92
2019-03-06T11:55:44.548Z,8.14
2019-03-06T11:58:51.823Z,8.11
2019-03-06T12:01:59.251Z,8.20
2019-03-06T12:05:06.670Z,8.06
2019-03-06T12:08:14.501Z,8.23
2019-03-06T12:11:21.618Z,8.20
2019-03-06T12:14:29.011Z,8.29
2019-03-06T12:17:36.605Z,8.41
2019-03-06T12:20:44.028Z,8.58
2019-03-06T12:23:51.527Z,8.47
2019-03-06T12:26:58.822Z,8.62
2019-03-06T12:30:06.456Z,8.52
2019-03-06T12:33:27.588Z,8.58
2019-03-06T12:36:36.164Z,8.59
2019-03-06T12:39:43.854Z,8.59
2019-03-06T12:43:00.468Z,8.82
2019-03-06T12:46:24.049Z,8.66
2019-03-06T12:49:31.346Z,8.57
2019-03-06T12:52:38.466Z,8.69
2019-03-06T12:55:54.815Z,8.59
2019-03-06T12:59:11.525Z,8.60
2019-03-06T13:02:28.218Z,8.84
2019-03-06T13:05:35.415Z,8.77
2019-03-06T13:08:49.996Z,8.71
2019-03-06T13:11:51.568Z,8.56
2019-03-06T13:14:58.846Z,8.56
2019-03-06T13:18:15.495Z,8.61
2019-03-06T13:21:22.655Z,8.66
2019-03-06T13:24:29.922Z,8.64
2019-03-06T13:27:54.431Z,8.89
2019-03-06T13:31:05.622Z,8.71
2019-03-06T13:34:35.178Z,8.70
2019-03-06T13:37:51.764Z,8.87
2019-03-06T13:40:58.979Z,8.80
2019-03-06T13:44:06.165Z,8.73
2019-03-06T13:47:13.380Z,8.70
2019-03-06T13:50:20.875Z,8.84
2019-03-06T13:53:37.276Z,8.85
2019-03-06T13:56:44.799Z,8.95
2019-03-06T14:00:01.298Z,8.85
2019-03-06T14:03:08.591Z,8.82
2019-03-06T14:06:15.706Z,8.88
2019-03-06T14:09:32.522Z,8.97
2019-03-06T14:12:49.363Z,8.96
2019-03-06T14:16:06.220Z,9.06
2019-03-06T14:19:25.274Z,9.02
2019-03-06T14:22:33.186Z,8.85
2019-03-06T14:25:40.402Z,9.00
2019-03-06T14:28:47.637Z,8.87
2019-03-06T14:31:54.851Z,9.01
2019-03-06T14:35:02.054Z,9.07
2019-03-06T14:38:09.488Z,9.04
2019-03-06T14:41:16.659Z,8.99
2019-03-06T14:44:23.954Z,9.28
2019-03-06T14:47:31.239Z,9.23
2019-03-06T14:50:38.586Z,9.06
2019-03-06T14:53:45.711Z,9.10
2019-03-06T14:56:53.049Z,9.03
2019-03-06T15:00:00.334Z,9.23
2019-03-06T15:03:08.655Z,9.21
2019-03-06T15:06:15.955Z,9.17
2019-03-06T15:09:27.622Z,9.17
2019-03-06T15:12:34.833Z,9.19
2019-03-06T15:15:42.017Z,9.38
2019-03-06T15:18:49.396Z,9.27
2019-03-06T15:21:56.695Z,9.24
2019-03-06T15:25:04.076Z,9.25
2019-03-06T15:28:11.375Z,9.18
2019-03-06T15:31:18.598Z,9.11
2019-03-06T15:34:25.728Z,9.19
2019-03-06T15:37:33.034Z,9.33
2019-03-06T15:40:40.680Z,9.27
2019-03-06T15:43:57.317Z,9.26
2019-03-06T15:47:14.228Z,9.28
2019-03-06T15:50:31.323Z,9.29
2019-03-06T15:53:38.641Z,9.18
2019-03-06T15:56:54.942Z,9.37
2019-03-06T16:00:18.819Z,9.15
2019-03-06T16:03:26.215Z,9.22
2019-03-06T16:06:33.455Z,9.22
2019-03-06T16:09:40.741Z,9.12
2019-03-06T16:12:48.774Z,9.22
2019-03-06T16:16:05.499Z,9.15
2019-03-06T16:19:22.194Z,9.29
2019-03-06T16:22:29.583Z,9.13
2019-03-06T16:25:46.179Z,9.08
2019-03-06T16:28:51.718Z,9.05
2019-03-06T16:32:08.407Z,9.01
2019-03-06T16:35:16.096Z,8.98
2019-03-06T16:38:32.789Z,9.07
2019-03-06T16:41:49.217Z,9.07
2019-03-06T16:45:06.472Z,9.02
2019-03-06T16:48:23.972Z,9.02
2019-03-06T16:51:31.183Z,8.91
2019-03-06T16:54:47.839Z,9.01
2019-03-06T16:57:55.342Z,8.84
2019-03-06T17:01:11.844Z,8.82
2019-03-06T17:04:19.178Z,8.80
2019-03-06T17:07:36.136Z,8.79
2019-03-06T17:10:52.808Z,8.95
2019-03-06T17:14:09.771Z,9.03
2019-03-06T17:17:26.326Z,8.93
2019-03-06T17:20:43.136Z,8.88
2019-03-06T17:23:59.852Z,8.90
2019-03-06T17:27:07.152Z,8.88
2019-03-06T17:30:24.488Z,8.79
2019-03-06T17:33:31.900Z,8.74
2019-03-06T17:36:39.169Z,8.94
2019-03-06T17:39:46.502Z,8.84
2019-03-06T17:42:54.065Z,8.94
2019-03-06T17:46:01.288Z,8.77
2019-03-06T17:49:07.766Z,8.76
2019-03-06T17:52:15.067Z,8.64
2019-03-06T17:55:22.577Z,8.80
2019-03-06T17:58:29.826Z,8.78
2019-03-06T18:01:37.455Z,8.62
2019-03-06T18:04:54.324Z,8.74
2019-03-06T18:08:11.555Z,8.73
2019-03-06T18:11:19.055Z,8.54
2019-03-06T18:14:26.419Z,8.40
2019-03-06T18:17:33.761Z,8.47
2019-03-06T18:20:41.616Z,8.41
2019-03-06T18:23:58.128Z,8.55
2019-03-06T18:27:06.026Z,8.50
2019-03-06T18:30:15.156Z,8.30
2019-03-06T18:33:22.537Z,8.53
2019-03-06T18:36:30.006Z,8.37
2019-03-06T18:39:37.315Z,8.27
2019-03-06T18:42:44.875Z,8.34
2019-03-06T18:46:01.533Z,8.50
2019-03-06T18:49:18.453Z,8.36
2019-03-06T18:52:35.141Z,8.31
2019-03-06T18:55:51.716Z,8.44
2019-03-06T18:58:59.058Z,8.24
2019-03-06T19:02:07.005Z,8.33
2019-03-06T19:05:15.054Z,8.24
2019-03-06T19:08:31.845Z,8.25
2019-03-06T19:11:48.235Z,8.27
2019-03-06T19:15:06.208Z,8.18
2019-03-06T19:18:13.860Z,8.19
2019-03-06T19:21:22.737Z,8.29
2019-03-06T19:24:30.193Z,8.26
2019-03-06T19:27:47.081Z,8.25
2019-03-06T19:31:03.676Z,8.29
2019-03-06T19:34:11.564Z,8.24
2019-03-06T19:37:19.142Z,8.16
2019-03-06T19:40:26.632Z,8.12
2019-03-06T19:43:34.014Z,8.18
2019-03-06T19:46:50.917Z,8.21
2019-03-06T19:50:10.560Z,8.21
2019-03-06T19:53:18.085Z,8.24
2019-03-06T19:56:35.003Z,8.20
2019-03-06T19:59:51.792Z,8.41
2019-03-06T20:02:59.910Z,8.43
2019-03-06T20:06:07.501Z,8.39
2019-03-06T20:09:25.828Z,8.58
2019-03-06T20:12:33.228Z,8.23
2019-03-06T20:15:49.764Z,8.48
2019-03-06T20:18:57.216Z,8.25
2019-03-06T20:22:13.818Z,8.33
2019-03-06T20:25:30.721Z,8.27
2019-03-06T20:28:47.274Z,8.32
2019-03-06T20:32:04.265Z,8.29
2019-03-06T20:35:22.147Z,8.28
2019-03-06T20:38:29.746Z,8.15
2019-03-06T20:41:46.458Z,8.19
2019-03-06T20:44:53.695Z,8.13
2019-03-06T20:48:10.665Z,8.24
2019-03-06T20:51:27.295Z,8.30
2019-03-06T20:54:44.054Z,8.28
2019-03-06T20:58:00.676Z,8.29
2019-03-06T21:01:08.250Z,8.22
2019-03-06T21:04:24.626Z,8.26
2019-03-06T21:07:31.844Z,8.18
2019-03-06T21:10:42.020Z,8.24
2019-03-06T21:13:49.169Z,8.19
2019-03-06T21:16:56.833Z,8.21
2019-03-06T21:20:17.916Z,8.26
2019-03-06T21:23:25.474Z,8.20
2019-03-06T21:26:32.951Z,8.22
2019-03-06T21:29:40.904Z,8.29
2019-03-06T21:32:48.142Z,8.20
2019-03-06T21:35:55.359Z,8.29
2019-03-06T21:39:03.802Z,8.25
2019-03-06T21:42:11.037Z,8.37
2019-03-06T21:45:18.336Z,8.33
2019-03-06T21:48:25.673Z,8.42
2019-03-06T21:51:32.971Z,8.35
2019-03-06T21:54:40.131Z,8.41
2019-03-06T21:57:47.455Z,8.40
2019-03-06T22:00:54.663Z,8.41
2019-03-06T22:04:01.963Z,8.33
2019-03-06T22:07:09.346Z,8.51
2019-03-06T22:10:16.629Z,8.44
2019-03-06T22:13:33.410Z,8.50
2019-03-06T22:16:40.667Z,8.54
2019-03-06T22:19:47.879Z,8.47
2019-03-06T22:22:54.486Z,8.39
2019-03-06T22:26:01.811Z,8.48
2019-03-06T22:29:09.039Z,8.51
2019-03-06T22:32:25.182Z,8.47
2019-03-06T22:35:32.410Z,8.54
2019-03-06T22:38:39.705Z,8.42
2019-03-06T22:41:46.915Z,8.44
2019-03-06T22:44:54.094Z,8.42
2019-03-06T22:48:01.283Z,8.53
2019-03-06T22:51:08.521Z,8.60
2019-03-06T22:54:15.677Z,8.69
2019-03-06T22:57:22.880Z,8.58
2019-03-06T23:01:03.471Z,8.59
2019-03-06T23:04:10.261Z,8.58
2019-03-06T23:07:17.388Z,8.61
2019-03-06T23:10:24.677Z,8.64
2019-03-06T23:13:41.433Z,8.70
2019-03-06T23:16:58.196Z,8.72
2019-03-06T23:20:06.218Z,8.77
2019-03-06T23:23:13.558Z,8.77
2019-03-06T23:26:20.674Z,8.82
2019-03-06T23:29:27.862Z,8.63
2019-03-06T23:32:34.988Z,8.80
2019-03-06T23:35:42.294Z,8.73
2019-03-06T23:38:49.456Z,8.89
2019-03-06T23:41:56.653Z,8.81
2019-03-06T23:45:03.973Z,8.96
2019-03-06T23:48:11.166Z,8.99
2019-03-06T23:51:23.492Z,8.88
2019-03-06T23:54:30.623Z,9.02
2019-03-06T23:57:37.824Z,8.85
